Time,TemperatureF,DewpointF,PressureIn,WindDirection,WindDirectionDegrees,WindSpeedMPH,WindSpeedGustMPH,Humidity,HourlyPrecipIn,Conditions,Clouds,dailyrainin,SoftwareType,DateUTC
2013-03-20 00:04:00,47.6,45.4,29.56,SW,218,0.0,0.0,92,0.00,,,0.00,WeatherDisplay:10.37,2013-03-19 23:04:00,
2013-03-20 00:09:00,47.4,45.2,29.56,SW,229,1.1,1.1,92,0.00,,,0.00,WeatherDisplay:10.37,2013-03-19 23:09:00,
2013-03-20 00:14:00,47.3,45.4,29.56,SW,221,2.3,2.3,93,0.00,,,0.00,WeatherDisplay:10.37,2013-03-19 23:14:00,
2013-03-20 00:19:00,47.3,45.4,29.56,SSE,152,2.0,2.0,93,0.00,,,0.00,WeatherDisplay:10.37,2013-03-19 23:19:00,
2013-03-20 00:24:00,47.2,45.3,29.55,SE,135,1.1,1.1,93,0.00,,,0.00,WeatherDisplay:10.37,2013-03-19 23:24:00,
2013-03-20 00:29:00,47.3,45.4,29.55,SSE,149,1.1,1.1,93,0.00,,,0.00,WeatherDisplay:10.37,2013-03-19 23:29:00,
2013-03-20 00:34:00,47.5,45.9,29.55,SSW,197,2.3,2.3,94,0.00,,,0.00,WeatherDisplay:10.37,2013-03-19 23:34:00,
2013-03-20 00:39:00,47.9,46.5,29.55,WSW,252,1.1,1.1,95,0.00,,,0.00,WeatherDisplay:10.37,2013-03-19 23:39:00,
2013-03-20 00:44:00,48.1,46.5,29.55,West,281,0.0,0.0,94,0.00,,,0.00,WeatherDisplay:10.37,2013-03-19 23:44:00,
2013-03-20 00:49:00,48.3,46.7,29.55,West,281,0.0,0.0,94,0.00,,,0.00,WeatherDisplay:10.37,2013-03-19 23:49:00,
2013-03-20 00:54:00,48.2,46.3,29.55,SSW,212,0.0,0.0,93,0.00,,,0.00,WeatherDisplay:10.37,2013-03-19 23:54:00,
2013-03-20 00:59:00,48.1,46.2,29.55,SSW,212,0.0,0.0,93,0.00,,,0.00,WeatherDisplay:10.37,2013-03-19 23:59:00,
2013-03-20 01:04:00,48.1,46.2,29.55,SSW,212,0.0,0.0,93,0.00,,,0.00,WeatherDisplay:10.37,2013-03-20 00:04:00,
2013-03-20 01:09:00,48.1,46.2,29.55,SSW,211,0.0,0.0,93,0.00,,,0.00,WeatherDisplay:10.37,2013-03-20 00:09:00,
2013-03-20 01:14:00,48.3,46.7,29.55,North,358,2.3,2.3,94,0.00,,,0.00,WeatherDisplay:10.37,2013-03-20 00:14:00,
2013-03-20 01:19:00,48.2,46.0,29.55,NE,39,3.5,3.5,92,0.00,,,0.00,WeatherDisplay:10.37,2013-03-20 00:19:00,
2013-03-20 01:24:00,48.3,46.1,29.55,NNE,26,1.1,1.1,92,0.00,,,0.00,WeatherDisplay:10.37,2013-03-20 00:24:00,
2013-03-20 01:29:00,48.3,46.1,29.55,NNW,345,4.0,4.0,92,0.00,,,0.00,WeatherDisplay:10.37,2013-03-20 00:29:00,
2013-03-20 01:34:00,48.4,45.9,29.55,ENE,57,3.5,3.5,91,0.00,,,0.00,WeatherDisplay:10.37,2013-03-20 00:34:00,
2013-03-20 01:39:00,48.3,45.8,29.55,ENE,77,3.5,3.5,91,0.00,,,0.00,WeatherDisplay:10.37,2013-03-20 00:39:00,
2013-03-20 01:44:00,48.3,45.8,29.55,NE,54,4.6,4.6,91,0.00,,,0.00,WeatherDisplay:10.37,2013-03-20 00:44:00,
2013-03-20 01:49:00,48.3,45.8,29.55,ENE,69,1.1,1.1,91,0.00,,,0.00,WeatherDisplay:10.37,2013-03-20 00:49:00,
2013-03-20 01:54:00,48.3,45.8,29.56,ENE,57,3.5,3.5,91,0.00,,,0.00,WeatherDisplay:10.37,2013-03-20 00:54:00,
2013-03-20 01:59:00,48.3,45.8,29.55,NE,50,2.3,2.3,91,0.00,,,0.00,WeatherDisplay:10.37,2013-03-20 00:59:00,
2013-03-20 02:04:00,48.4,45.9,29.55,NE,34,3.5,3.5,91,0.00,,,0.00,WeatherDisplay:10.37,2013-03-20 01:04:00,
2013-03-20 02:09:00,48.4,45.9,29.55,NE,40,3.5,3.5,91,0.00,,,0.00,WeatherDisplay:10.37,2013-03-20 01:09:00,
2013-03-20 02:14:00,48.4,45.9,29.55,NE,47,2.3,2.3,91,0.00,,,0.00,WeatherDisplay:10.37,2013-03-20 01:14:00,
2013-03-20 02:19:00,48.4,46.2,29.55,East,79,2.3,2.3,92,0.00,,,0.00,WeatherDisplay:10.37,2013-03-20 01:19:00,
2013-03-20 02:24:00,48.5,46.3,29.55,East,101,1.1,0.0,92,0.00,,,0.00,WeatherDisplay:10.37,2013-03-20 01:24:00,
2013-03-20 02:29:00,48.5,46.3,29.55,East,98,2.3,2.3,92,0.00,,,0.00,WeatherDisplay:10.37,2013-03-20 01:29:00,
2013-03-20 02:34:00,48.5,46.3,29.55,East,84,2.3,2.3,92,0.00,,,0.00,WeatherDisplay:10.37,2013-03-20 01:34:00,
2013-03-20 02:39:00,48.6,46.4,29.55,East,84,0.0,0.0,92,0.00,,,0.00,WeatherDisplay:10.37,2013-03-20 01:39:00,
2013-03-20 02:44:00,48.5,46.3,29.55,East,84,0.0,0.0,92,0.00,,,0.00,WeatherDisplay:10.37,2013-03-20 01:44:00,
2013-03-20 02:49:00,48.4,46.5,29.55,NE,34,1.1,1.1,93,0.00,,,0.00,WeatherDisplay:10.37,2013-03-20 01:49:00,
2013-03-20 02:54:00,48.3,46.4,29.55,North,350,2.3,2.3,93,0.00,,,0.00,WeatherDisplay:10.37,2013-03-20 01:54:00,
2013-03-20 02:59:00,48.1,46.2,29.55,NNW,347,0.0,0.0,93,0.00,,,0.00,WeatherDisplay:10.37,2013-03-20 01:59:00,
2013-03-20 03:04:00,48.1,46.2,29.55,East,94,0.0,0.0,93,0.00,,,0.00,WeatherDisplay:10.37,2013-03-20 02:04:00,
2013-03-20 03:09:00,48.2,46.6,29.55,ENE,65,1.1,1.1,94,0.00,,,0.00,WeatherDisplay:10.37,2013-03-20 02:09:00,
2013-03-20 03:14:00,48.2,46.3,29.55,ENE,61,0.0,0.0,93,0.00,,,0.00,WeatherDisplay:10.37,2013-03-20 02:14:00,
2013-03-20 03:19:00,48.2,46.6,29.55,ENE,61,0.0,0.0,94,0.01,RA,,0.01,WeatherDisplay:10.37,2013-03-20 02:19:00,
2013-03-20 03:24:00,48.0,46.4,29.55,ENE,61,0.0,0.0,94,0.01,RA,,0.01,WeatherDisplay:10.37,2013-03-20 02:24:00,
2013-03-20 03:29:00,48.0,46.4,29.55,ENE,68,1.0,1.0,94,0.01,,,0.01,WeatherDisplay:10.37,2013-03-20 02:29:00,
2013-03-20 03:34:00,48.0,46.4,29.55,ENE,67,0.0,0.0,94,0.01,,,0.01,WeatherDisplay:10.37,2013-03-20 02:34:00,
2013-03-20 03:39:00,47.9,46.3,29.55,NE,46,2.0,2.0,94,0.01,,,0.01,WeatherDisplay:10.37,2013-03-20 02:39:00,
2013-03-20 03:44:00,47.9,46.3,29.55,NNE,30,1.1,1.1,94,0.01,,,0.01,WeatherDisplay:10.37,2013-03-20 02:44:00,
2013-03-20 03:49:00,48.0,46.4,29.55,East,89,1.1,0.0,94,0.02,RA,,0.02,WeatherDisplay:10.37,2013-03-20 02:49:00,
2013-03-20 03:54:00,48.0,46.4,29.56,ESE,110,0.0,0.0,94,0.02,RA,,0.02,WeatherDisplay:10.37,2013-03-20 02:54:00,
2013-03-20 03:59:00,48.1,46.5,29.56,SE,139,1.1,1.1,94,0.02,,,0.02,WeatherDisplay:10.37,2013-03-20 02:59:00,
2013-03-20 04:04:00,48.1,46.5,29.56,South,178,1.1,1.1,94,0.02,,,0.02,WeatherDisplay:10.37,2013-03-20 03:04:00,
2013-03-20 04:09:00,48.1,46.5,29.56,SSW,196,3.0,3.0,94,0.02,RA,,0.02,WeatherDisplay:10.37,2013-03-20 03:09:00,
2013-03-20 04:14:00,48.1,46.7,29.56,SSW,199,2.3,2.3,95,0.02,RA,,0.02,WeatherDisplay:10.37,2013-03-20 03:14:00,
2013-03-20 04:19:00,48.1,46.7,29.56,SW,215,2.3,2.3,95,0.02,,,0.02,WeatherDisplay:10.37,2013-03-20 03:19:00,
2013-03-20 04:24:00,48.1,46.7,29.57,SW,221,3.5,3.5,95,0.02,,,0.02,WeatherDisplay:10.37,2013-03-20 03:24:00,
2013-03-20 04:29:00,48.1,46.7,29.57,SW,215,2.3,2.3,95,0.02,,,0.02,WeatherDisplay:10.37,2013-03-20 03:29:00,
2013-03-20 04:34:00,48.0,46.6,29.57,SW,218,3.5,3.5,95,0.02,RA,,0.03,WeatherDisplay:10.37,2013-03-20 03:34:00,
2013-03-20 04:39:00,47.9,46.5,29.57,South,191,2.3,2.3,95,0.02,RA,,0.03,WeatherDisplay:10.37,2013-03-20 03:39:00,
2013-03-20 04:44:00,47.7,46.3,29.57,SSW,199,2.3,2.3,95,0.02,,,0.03,WeatherDisplay:10.37,2013-03-20 03:44:00,
2013-03-20 04:49:00,47.7,46.3,29.58,South,170,2.3,2.3,95,0.02,RA,,0.04,WeatherDisplay:10.37,2013-03-20 03:49:00,
2013-03-20 04:54:00,47.6,46.2,29.58,SSE,166,3.5,3.5,95,0.02,RA,,0.04,WeatherDisplay:10.37,2013-03-20 03:54:00,
2013-03-20 04:59:00,47.5,46.1,29.58,SSW,193,3.5,3.5,95,0.03,RA,,0.05,WeatherDisplay:10.37,2013-03-20 03:59:00,
2013-03-20 05:00:00,47.5,46.1,29.58,SSW,207,3.5,3.5,95,0.03,RA,,0.05,WeatherDisplay:10.37,2013-03-20 04:00:00,
2013-03-20 05:02:00,47.5,46.1,29.58,SSE,158,3.5,3.5,95,0.03,RA,,0.05,WeatherDisplay:10.37,2013-03-20 04:02:00,
2013-03-20 05:07:00,47.5,46.1,29.58,SSE,165,3.5,3.5,95,0.04,RA,,0.06,WeatherDisplay:10.37,2013-03-20 04:07:00,
2013-03-20 05:12:00,47.4,46.0,29.58,South,188,2.3,2.3,95,0.03,RA,,0.06,WeatherDisplay:10.37,2013-03-20 04:12:00,
2013-03-20 05:17:00,47.4,46.0,29.58,SW,225,2.3,2.3,95,0.04,RA,,0.06,WeatherDisplay:10.37,2013-03-20 04:17:00,
2013-03-20 05:22:00,47.5,46.4,29.59,WNW,284,2.3,2.3,96,0.05,RA,,0.07,WeatherDisplay:10.37,2013-03-20 04:22:00,
2013-03-20 05:27:00,47.4,46.3,29.59,West,271,2.3,2.3,96,0.06,RA,,0.08,WeatherDisplay:10.37,2013-03-20 04:27:00,
2013-03-20 05:32:00,47.4,46.0,29.58,South,171,3.5,3.5,95,0.05,RA,,0.09,WeatherDisplay:10.37,2013-03-20 04:32:00,
2013-03-20 05:37:00,47.3,46.2,29.58,South,184,3.5,3.5,96,0.06,RA,,0.09,WeatherDisplay:10.37,2013-03-20 04:37:00,
2013-03-20 05:42:00,47.2,46.1,29.58,SSE,150,4.6,4.6,96,0.06,RA,,0.09,WeatherDisplay:10.37,2013-03-20 04:42:00,
2013-03-20 05:47:00,47.2,46.1,29.58,South,174,3.5,3.5,96,0.06,RA,,0.09,WeatherDisplay:10.37,2013-03-20 04:47:00,
2013-03-20 05:52:00,47.2,46.1,29.59,SW,235,3.5,3.5,96,0.06,RA,,0.10,WeatherDisplay:10.37,2013-03-20 04:52:00,
2013-03-20 05:57:00,47.3,46.2,29.59,SSW,208,3.0,3.0,96,0.06,RA,,0.10,WeatherDisplay:10.37,2013-03-20 04:57:00,
2013-03-20 06:02:00,47.3,46.2,29.59,SW,214,2.3,2.3,96,0.06,,,0.10,WeatherDisplay:10.37,2013-03-20 05:02:00,
2013-03-20 06:07:00,47.2,46.1,29.59,SSE,157,1.1,0.0,96,0.06,RA,,0.11,WeatherDisplay:10.37,2013-03-20 05:07:00,
2013-03-20 06:12:00,47.2,46.1,29.60,SSE,156,1.1,0.0,96,0.06,RA,,0.11,WeatherDisplay:10.37,2013-03-20 05:12:00,
2013-03-20 06:17:00,47.3,46.2,29.60,SW,224,0.0,0.0,96,0.06,RA,,0.12,WeatherDisplay:10.37,2013-03-20 05:17:00,
2013-03-20 06:22:00,47.3,46.2,29.60,SSE,159,1.1,1.1,96,0.05,RA,,0.12,WeatherDisplay:10.37,2013-03-20 05:22:00,
2013-03-20 06:27:00,47.2,46.1,29.60,SSE,160,2.3,2.3,96,0.04,,,0.12,WeatherDisplay:10.37,2013-03-20 05:27:00,
2013-03-20 06:32:00,47.2,46.1,29.60,SW,215,0.0,0.0,96,0.05,RA,,0.13,WeatherDisplay:10.37,2013-03-20 05:32:00,
2013-03-20 06:37:00,47.2,46.1,29.60,ESE,107,0.0,0.0,96,0.04,RA,,0.13,WeatherDisplay:10.37,2013-03-20 05:37:00,
2013-03-20 06:42:00,47.3,46.2,29.60,East,98,0.0,0.0,96,0.03,,,0.13,WeatherDisplay:10.37,2013-03-20 05:42:00,
2013-03-20 06:47:00,47.3,46.2,29.61,East,87,0.0,0.0,96,0.03,,,0.13,WeatherDisplay:10.37,2013-03-20 05:47:00,
2013-03-20 06:52:00,47.3,46.2,29.61,NE,56,0.0,0.0,96,0.02,,,0.13,WeatherDisplay:10.37,2013-03-20 05:52:00,
2013-03-20 06:58:00,47.3,46.2,29.61,NE,53,0.0,0.0,96,0.02,,,0.13,WeatherDisplay:10.37,2013-03-20 05:58:00,
2013-03-20 07:03:00,47.3,46.2,29.61,ENE,61,0.0,0.0,96,0.02,,,0.13,WeatherDisplay:10.37,2013-03-20 06:03:00,
2013-03-20 07:08:00,47.3,46.2,29.62,NE,39,0.0,0.0,96,0.02,RA,,0.13,WeatherDisplay:10.37,2013-03-20 06:08:00,
2013-03-20 07:13:00,47.2,46.1,29.62,ENE,60,0.0,0.0,96,0.02,RA,,0.13,WeatherDisplay:10.37,2013-03-20 06:13:00,
2013-03-20 07:18:00,47.2,46.1,29.62,East,98,3.5,3.5,96,0.02,,,0.13,WeatherDisplay:10.37,2013-03-20 06:18:00,
2013-03-20 07:23:00,47.2,46.1,29.62,East,79,4.6,4.6,96,0.02,,,0.13,WeatherDisplay:10.37,2013-03-20 06:23:00,
2013-03-20 07:28:00,47.3,46.5,29.62,ENE,74,3.5,3.5,97,0.02,,,0.13,WeatherDisplay:10.37,2013-03-20 06:28:00,
2013-03-20 07:33:00,47.4,46.3,29.63,East,82,3.5,3.5,96,0.01,,,0.13,WeatherDisplay:10.37,2013-03-20 06:33:00,
2013-03-20 07:38:00,47.5,46.7,29.63,East,98,4.6,4.6,97,0.01,,,0.13,WeatherDisplay:10.37,2013-03-20 06:38:00,
2013-03-20 07:43:00,47.6,46.8,29.63,ESE,113,5.8,5.8,97,0.01,,,0.13,WeatherDisplay:10.37,2013-03-20 06:43:00,
2013-03-20 07:48:00,47.7,46.6,29.63,East,94,5.0,5.0,96,0.01,,,0.13,WeatherDisplay:10.37,2013-03-20 06:48:00,
2013-03-20 07:53:00,47.9,46.8,29.63,ENE,68,3.5,3.5,96,0.01,,,0.13,WeatherDisplay:10.37,2013-03-20 06:53:00,
2013-03-20 07:58:00,48.1,47.0,29.63,East,100,3.5,3.5,96,0.01,,,0.13,WeatherDisplay:10.37,2013-03-20 06:58:00,
2013-03-20 08:03:00,48.3,47.2,29.64,ENE,65,3.5,3.5,96,0.01,,,0.13,WeatherDisplay:10.37,2013-03-20 07:03:00,
2013-03-20 08:08:00,48.5,47.4,29.64,ESE,105,3.0,3.0,96,0.00,,,0.13,WeatherDisplay:10.37,2013-03-20 07:08:00,
2013-03-20 08:13:00,48.8,47.7,29.64,NNW,347,3.5,3.5,96,0.00,,,0.13,WeatherDisplay:10.37,2013-03-20 07:13:00,
2013-03-20 08:18:00,49.0,47.9,29.65,NNW,337,3.5,3.5,96,0.00,,,0.13,WeatherDisplay:10.37,2013-03-20 07:18:00,
2013-03-20 08:23:00,49.0,47.9,29.65,NE,53,4.6,4.6,96,0.00,,,0.13,WeatherDisplay:10.37,2013-03-20 07:23:00,
2013-03-20 08:28:00,49.1,48.0,29.65,North,5,2.3,2.3,96,0.00,,,0.13,WeatherDisplay:10.37,2013-03-20 07:28:00,
2013-03-20 08:33:00,49.4,48.3,29.65,NNE,32,3.5,3.5,96,0.00,,,0.13,WeatherDisplay:10.37,2013-03-20 07:33:00,
2013-03-20 08:38:00,49.5,48.4,29.66,NNE,20,5.8,5.8,96,0.00,,,0.13,WeatherDisplay:10.37,2013-03-20 07:38:00,
2013-03-20 08:43:00,49.8,48.4,29.66,NNE,32,3.5,3.5,95,0.00,,,0.13,WeatherDisplay:10.37,2013-03-20 07:43:00,
2013-03-20 08:48:00,50.0,48.3,29.66,NNE,23,4.6,4.6,94,0.00,,,0.13,WeatherDisplay:10.37,2013-03-20 07:48:00,
2013-03-20 08:54:00,50.3,48.1,29.66,NNE,22,12.7,12.7,92,0.00,,,0.13,WeatherDisplay:10.37,2013-03-20 07:54:00,
2013-03-20 08:59:00,51.0,46.3,29.67,North,5,16.1,16.1,84,0.00,,,0.13,WeatherDisplay:10.37,2013-03-20 07:59:00,
2013-03-20 09:04:00,51.3,46.3,29.67,NNE,12,15.0,15.0,83,0.00,,,0.13,WeatherDisplay:10.37,2013-03-20 08:04:00,
2013-03-20 09:09:00,51.7,44.7,29.67,North,356,21.9,21.9,77,0.00,,,0.13,WeatherDisplay:10.37,2013-03-20 08:09:00,
2013-03-20 09:14:00,52.0,46.0,29.67,North,9,15.0,15.0,80,0.00,,,0.13,WeatherDisplay:10.37,2013-03-20 08:14:00,
2013-03-20 09:19:00,52.1,45.4,29.67,NNE,30,15.0,15.0,78,0.00,,,0.13,WeatherDisplay:10.37,2013-03-20 08:19:00,
2013-03-20 09:24:00,52.1,45.4,29.68,NNW,340,16.1,16.1,78,0.00,,,0.13,WeatherDisplay:10.37,2013-03-20 08:24:00,
2013-03-20 09:29:00,52.2,45.2,29.68,North,351,18.4,18.4,77,0.00,,,0.13,WeatherDisplay:10.37,2013-03-20 08:29:00,
2013-03-20 09:34:00,52.3,45.6,29.68,NE,47,20.0,20.0,78,0.00,,,0.13,WeatherDisplay:10.37,2013-03-20 08:34:00,
2013-03-20 09:39:00,52.5,45.2,29.68,NE,34,18.4,18.4,76,0.00,,,0.13,WeatherDisplay:10.37,2013-03-20 08:39:00,
2013-03-20 09:44:00,52.6,44.9,29.68,NNE,29,18.4,18.4,75,0.00,,,0.13,WeatherDisplay:10.37,2013-03-20 08:44:00,
2013-03-20 09:49:00,52.7,45.0,29.68,NNE,20,19.6,19.6,75,0.00,,,0.13,WeatherDisplay:10.37,2013-03-20 08:49:00,
2013-03-20 09:54:00,52.8,45.4,29.68,North,359,18.4,18.4,76,0.00,,,0.13,WeatherDisplay:10.37,2013-03-20 08:54:00,
2013-03-20 09:59:00,53.0,45.6,29.69,NNE,25,18.0,18.0,76,0.00,,,0.13,WeatherDisplay:10.37,2013-03-20 08:59:00,
2013-03-20 10:04:00,53.2,44.8,29.69,NNE,25,18.4,18.4,73,0.00,,,0.13,WeatherDisplay:10.37,2013-03-20 09:04:00,
2013-03-20 10:09:00,53.3,44.1,29.69,NNE,27,19.6,19.6,71,0.00,,,0.13,WeatherDisplay:10.37,2013-03-20 09:09:00,
2013-03-20 10:14:00,53.5,43.6,29.69,NNW,343,26.5,26.5,69,0.00,,,0.13,WeatherDisplay:10.37,2013-03-20 09:14:00,
2013-03-20 10:19:00,53.9,44.0,29.69,NNW,341,20.7,20.7,69,0.00,,,0.13,WeatherDisplay:10.37,2013-03-20 09:19:00,
2013-03-20 10:24:00,54.2,43.9,29.70,North,11,23.0,23.0,68,0.00,,,0.13,WeatherDisplay:10.37,2013-03-20 09:24:00,
2013-03-20 10:29:00,54.4,43.7,29.70,North,9,23.0,23.0,67,0.00,,,0.13,WeatherDisplay:10.37,2013-03-20 09:29:00,
2013-03-20 10:34:00,54.6,42.3,29.70,NNE,22,28.8,28.8,63,0.00,,,0.13,WeatherDisplay:10.37,2013-03-20 09:34:00,
2013-03-20 10:39:00,55.0,42.6,29.70,NE,36,31.1,31.1,63,0.00,,,0.13,WeatherDisplay:10.37,2013-03-20 09:39:00,
2013-03-20 10:44:00,55.2,43.6,29.71,North,356,23.0,23.0,65,0.00,,,0.13,WeatherDisplay:10.37,2013-03-20 09:44:00,
2013-03-20 10:49:00,55.5,43.5,29.70,NE,44,25.3,25.3,64,0.00,,,0.13,WeatherDisplay:10.37,2013-03-20 09:49:00,
2013-03-20 10:54:00,55.7,42.5,29.71,North,1,26.5,26.5,61,0.00,,,0.13,WeatherDisplay:10.37,2013-03-20 09:54:00,
2013-03-20 10:59:00,56.0,44.0,29.71,North,360,21.9,21.9,64,0.00,,,0.13,WeatherDisplay:10.37,2013-03-20 09:59:00,
2013-03-20 11:04:00,56.3,43.9,29.71,NNE,23,21.0,21.0,63,0.00,,,0.13,WeatherDisplay:10.37,2013-03-20 10:04:00,
2013-03-20 11:09:00,56.3,43.9,29.72,North,11,19.6,19.6,63,0.00,,,0.13,WeatherDisplay:10.37,2013-03-20 10:09:00,
2013-03-20 11:14:00,56.4,44.0,29.72,NE,38,23.0,23.0,63,0.00,,,0.13,WeatherDisplay:10.37,2013-03-20 10:14:00,
2013-03-20 11:19:00,56.3,43.9,29.72,NE,34,21.9,21.9,63,0.00,,,0.13,WeatherDisplay:10.37,2013-03-20 10:19:00,
2013-03-20 11:24:00,57.0,43.7,29.72,NNE,23,23.0,23.0,61,0.00,,,0.13,WeatherDisplay:10.37,2013-03-20 10:24:00,
2013-03-20 11:29:00,56.9,44.0,29.72,North,354,26.5,26.5,62,0.00,,,0.13,WeatherDisplay:10.37,2013-03-20 10:29:00,
2013-03-20 11:34:00,57.0,43.7,29.73,NNE,26,19.6,19.6,61,0.00,,,0.13,WeatherDisplay:10.37,2013-03-20 10:34:00,
2013-03-20 11:39:00,57.5,44.6,29.73,NE,46,23.0,23.0,62,0.00,,,0.13,WeatherDisplay:10.37,2013-03-20 10:39:00,
2013-03-20 11:44:00,57.6,44.2,29.73,NNW,347,19.6,19.6,61,0.00,,,0.13,WeatherDisplay:10.37,2013-03-20 10:44:00,
2013-03-20 11:49:00,57.8,43.6,29.73,North,350,19.6,19.6,59,0.00,,,0.13,WeatherDisplay:10.37,2013-03-20 10:49:00,
2013-03-20 11:54:00,58.0,43.7,29.73,North,350,21.0,21.0,59,0.00,,,0.13,WeatherDisplay:10.37,2013-03-20 10:54:00,
2013-03-20 11:59:00,58.1,42.9,29.73,NNE,18,29.9,29.9,57,0.00,,,0.13,WeatherDisplay:10.37,2013-03-20 10:59:00,
2013-03-20 12:04:00,58.2,43.5,29.73,NNE,18,21.0,21.0,58,0.00,,,0.13,WeatherDisplay:10.37,2013-03-20 11:04:00,
2013-03-20 12:09:00,58.3,44.5,29.74,North,351,21.0,21.0,60,0.00,,,0.13,WeatherDisplay:10.37,2013-03-20 11:09:00,
2013-03-20 12:14:00,58.6,44.8,29.74,North,9,21.9,21.9,60,0.00,,,0.13,WeatherDisplay:10.37,2013-03-20 11:14:00,
2013-03-20 12:19:00,58.5,42.4,29.74,NNW,338,20.7,20.7,55,0.00,,,0.13,WeatherDisplay:10.37,2013-03-20 11:19:00,
2013-03-20 12:24:00,58.7,43.5,29.75,North,11,19.6,19.6,57,0.00,,,0.13,WeatherDisplay:10.37,2013-03-20 11:24:00,
2013-03-20 12:30:00,59.0,44.7,29.75,NNW,331,21.9,21.9,59,0.00,,,0.13,WeatherDisplay:10.37,2013-03-20 11:30:00,
2013-03-20 12:35:00,59.1,42.0,29.75,NNW,335,19.6,19.6,53,0.00,,,0.13,WeatherDisplay:10.37,2013-03-20 11:35:00,
2013-03-20 12:40:00,59.4,43.2,29.75,North,6,19.6,19.6,55,0.00,,,0.13,WeatherDisplay:10.37,2013-03-20 11:40:00,
2013-03-20 12:45:00,59.7,42.5,29.75,NNW,330,25.3,25.3,53,0.00,,,0.13,WeatherDisplay:10.37,2013-03-20 11:45:00,
2013-03-20 12:50:00,59.8,42.6,29.75,NNW,338,26.5,26.5,53,0.00,,,0.13,WeatherDisplay:10.37,2013-03-20 11:50:00,
2013-03-20 12:55:00,59.3,40.7,29.75,North,349,28.8,28.8,50,0.00,,,0.13,WeatherDisplay:10.37,2013-03-20 11:55:00,
2013-03-20 13:00:00,59.3,41.2,29.75,NNW,340,29.9,29.9,51,0.00,,,0.13,WeatherDisplay:10.37,2013-03-20 12:00:00,
2013-03-20 13:05:00,59.3,40.7,29.75,NNE,15,26.5,26.5,50,0.00,,,0.13,WeatherDisplay:10.37,2013-03-20 12:05:00,
2013-03-20 13:10:00,59.3,41.7,29.75,NNE,15,29.9,29.9,52,0.00,,,0.13,WeatherDisplay:10.37,2013-03-20 12:10:00,
2013-03-20 13:15:00,59.6,43.4,29.75,North,352,15.0,28.0,55,0.00,,,0.13,WeatherDisplay:10.37,2013-03-20 12:15:00,
2013-03-20 13:20:00,59.7,42.5,29.75,North,349,17.0,26.0,53,0.00,,,0.13,WeatherDisplay:10.37,2013-03-20 12:20:00,
2013-03-20 13:25:00,59.5,41.9,29.75,NNW,342,17.0,26.0,52,0.00,,,0.13,WeatherDisplay:10.37,2013-03-20 12:25:00,
2013-03-20 13:30:00,59.8,42.1,29.76,North,349,18.0,24.0,52,0.00,,,0.13,WeatherDisplay:10.37,2013-03-20 12:30:00,
2013-03-20 13:35:00,59.6,41.9,29.76,North,1,21.0,28.0,52,0.00,,,0.13,WeatherDisplay:10.37,2013-03-20 12:35:00,
2013-03-20 13:40:00,59.3,41.2,29.76,North,1,22.0,32.0,51,0.00,,,0.13,WeatherDisplay:10.37,2013-03-20 12:40:00,
2013-03-20 13:45:00,59.7,42.5,29.76,North,353,20.0,28.0,53,0.00,,,0.13,WeatherDisplay:10.37,2013-03-20 12:45:00,
2013-03-20 13:50:00,59.8,42.1,29.77,North,357,20.0,27.0,52,0.00,,,0.13,WeatherDisplay:10.37,2013-03-20 12:50:00,
2013-03-20 13:55:00,59.7,40.5,29.77,North,360,23.0,31.0,49,0.00,,,0.13,WeatherDisplay:10.37,2013-03-20 12:55:00,
2013-03-20 14:00:00,59.4,41.2,29.77,North,356,18.0,31.0,51,0.00,,,0.13,WeatherDisplay:10.37,2013-03-20 13:00:00,
2013-03-20 14:05:00,59.5,40.8,29.77,North,352,18.0,28.0,50,0.00,,,0.13,WeatherDisplay:10.37,2013-03-20 13:05:00,
2013-03-20 14:10:00,59.7,40.5,29.77,North,360,21.0,30.0,49,0.00,,,0.13,WeatherDisplay:10.37,2013-03-20 13:10:00,
2013-03-20 14:15:00,60.0,40.8,29.77,North,3,20.0,27.0,49,0.00,,,0.13,WeatherDisplay:10.37,2013-03-20 13:15:00,
2013-03-20 14:20:00,60.1,40.8,29.77,North,355,20.0,28.0,49,0.00,,,0.13,WeatherDisplay:10.37,2013-03-20 13:20:00,
2013-03-20 14:25:00,60.1,40.3,29.78,North,9,20.0,28.0,48,0.00,,,0.13,WeatherDisplay:10.37,2013-03-20 13:25:00,
2013-03-20 14:30:00,59.4,39.1,29.78,North,6,18.0,29.0,47,0.00,,,0.13,WeatherDisplay:10.37,2013-03-20 13:30:00,
2013-03-20 14:35:00,59.1,38.9,29.78,North,0,20.0,23.0,47,0.00,,,0.13,WeatherDisplay:10.37,2013-03-20 13:35:00,
2013-03-20 14:40:00,59.4,40.2,29.78,North,3,14.0,24.0,49,0.00,,,0.13,WeatherDisplay:10.37,2013-03-20 13:40:00,
2013-03-20 14:45:00,59.0,38.7,29.78,North,8,16.0,24.0,47,0.00,,,0.13,WeatherDisplay:10.37,2013-03-20 13:45:00,
2013-03-20 14:50:00,58.9,39.2,29.78,North,351,26.5,26.5,48,0.00,,,0.13,WeatherDisplay:10.37,2013-03-20 13:50:00,
2013-03-20 14:55:00,59.3,39.1,29.78,North,11,25.3,25.3,47,0.00,,,0.13,WeatherDisplay:10.37,2013-03-20 13:55:00,
2013-03-20 15:00:00,59.3,39.1,29.79,NE,36,20.7,20.7,47,0.00,,,0.13,WeatherDisplay:10.37,2013-03-20 14:00:00,
2013-03-20 15:05:00,59.7,37.7,29.79,North,11,25.3,25.3,44,0.00,,,0.13,WeatherDisplay:10.37,2013-03-20 14:05:00,
2013-03-20 15:10:00,59.5,38.1,29.79,North,356,24.2,24.2,45,0.00,,,0.13,WeatherDisplay:10.37,2013-03-20 14:10:00,
2013-03-20 15:15:00,59.1,36.6,29.79,NNE,12,18.0,26.0,43,0.00,,,0.13,WeatherDisplay:10.37,2013-03-20 14:15:00,
2013-03-20 15:20:00,58.9,37.6,29.80,North,11,15.0,23.0,45,0.00,,,0.13,WeatherDisplay:10.37,2013-03-20 14:20:00,
2013-03-20 15:25:00,58.8,36.9,29.80,North,3,14.0,23.0,44,0.00,,,0.13,WeatherDisplay:10.37,2013-03-20 14:25:00,
2013-03-20 15:30:00,58.8,36.3,29.80,North,352,12.0,25.0,43,0.00,,,0.13,WeatherDisplay:10.37,2013-03-20 14:30:00,
2013-03-20 15:35:00,58.9,36.4,29.80,NNW,348,17.0,29.0,43,0.00,,,0.13,WeatherDisplay:10.37,2013-03-20 14:35:00,
2013-03-20 15:40:00,59.4,36.3,29.80,North,356,14.0,27.0,42,0.00,,,0.13,WeatherDisplay:10.37,2013-03-20 14:40:00,
2013-03-20 15:45:00,59.3,35.6,29.80,North,8,14.0,27.0,41,0.00,,,0.13,WeatherDisplay:10.37,2013-03-20 14:45:00,
2013-03-20 15:50:00,59.6,35.8,29.80,North,359,20.0,24.0,41,0.00,,,0.13,WeatherDisplay:10.37,2013-03-20 14:50:00,
2013-03-20 15:55:00,59.6,35.8,29.81,North,350,17.0,24.0,41,0.00,,,0.13,WeatherDisplay:10.37,2013-03-20 14:55:00,
2013-03-20 16:00:00,59.3,34.9,29.81,North,355,18.0,25.0,40,0.00,,,0.13,WeatherDisplay:10.37,2013-03-20 15:00:00,
2013-03-20 16:05:00,59.1,37.2,29.82,North,4,10.0,18.0,44,0.00,,,0.13,WeatherDisplay:10.37,2013-03-20 15:05:00,
2013-03-20 16:10:00,59.1,36.0,29.82,North,352,15.0,21.0,42,0.00,,,0.13,WeatherDisplay:10.37,2013-03-20 15:10:00,
2013-03-20 16:15:00,59.4,38.0,29.82,North,352,12.0,20.0,45,0.00,,,0.13,WeatherDisplay:10.37,2013-03-20 15:15:00,
2013-03-20 16:20:00,59.8,36.0,29.82,North,3,18.0,26.0,41,0.00,,,0.13,WeatherDisplay:10.37,2013-03-20 15:20:00,
2013-03-20 16:25:00,59.7,35.9,29.82,North,1,18.0,25.0,41,0.00,,,0.13,WeatherDisplay:10.37,2013-03-20 15:25:00,
2013-03-20 16:30:00,60.2,37.6,29.83,North,9,17.0,25.0,43,0.00,,,0.13,WeatherDisplay:10.37,2013-03-20 15:30:00,
2013-03-20 16:35:00,60.4,37.2,29.83,North,357,17.0,28.0,42,0.00,,,0.13,WeatherDisplay:10.37,2013-03-20 15:35:00,
2013-03-20 16:40:00,60.1,38.1,29.83,North,358,15.0,24.0,44,0.00,,,0.13,WeatherDisplay:10.37,2013-03-20 15:40:00,
2013-03-20 16:45:00,59.9,38.5,29.83,North,360,18.0,28.0,45,0.00,,,0.13,WeatherDisplay:10.37,2013-03-20 15:45:00,
2013-03-20 16:50:00,59.5,37.6,29.83,North,355,16.0,24.0,44,0.00,,,0.13,WeatherDisplay:10.37,2013-03-20 15:50:00,
2013-03-20 16:55:00,59.2,37.9,29.84,North,357,14.0,23.0,45,0.00,,,0.13,WeatherDisplay:10.37,2013-03-20 15:55:00,
2013-03-20 17:00:00,59.0,36.5,29.84,North,10,14.0,20.0,43,0.00,,,0.13,WeatherDisplay:10.37,2013-03-20 16:00:00,
2013-03-20 17:05:00,58.9,37.0,29.84,NNE,26,19.6,19.6,44,0.00,,,0.13,WeatherDisplay:10.37,2013-03-20 16:05:00,
2013-03-20 17:10:00,59.1,37.2,29.85,North,2,13.0,18.0,44,0.00,,,0.13,WeatherDisplay:10.37,2013-03-20 16:10:00,
2013-03-20 17:15:00,59.5,38.1,29.85,North,2,9.0,17.0,45,0.00,,,0.13,WeatherDisplay:10.37,2013-03-20 16:15:00,
2013-03-20 17:20:00,60.1,38.1,29.86,North,360,10.0,18.0,44,0.00,,,0.13,WeatherDisplay:10.37,2013-03-20 16:20:00,
2013-03-20 17:25:00,60.1,38.7,29.86,North,360,9.0,16.0,45,0.00,,,0.13,WeatherDisplay:10.37,2013-03-20 16:25:00,
2013-03-20 17:30:00,59.7,37.2,29.86,North,11,12.0,17.0,43,0.00,,,0.13,WeatherDisplay:10.37,2013-03-20 16:30:00,
2013-03-20 17:35:00,59.6,38.8,29.87,North,9,8.0,16.0,46,0.00,,,0.13,WeatherDisplay:10.37,2013-03-20 16:35:00,
2013-03-20 17:40:00,59.2,39.0,29.87,North,357,9.0,18.0,47,0.00,,,0.13,WeatherDisplay:10.37,2013-03-20 16:40:00,
2013-03-20 17:45:00,59.3,39.1,29.88,North,349,7.0,18.0,47,0.00,,,0.13,WeatherDisplay:10.37,2013-03-20 16:45:00,
2013-03-20 17:50:00,59.2,39.0,29.88,NNW,343,7.0,10.0,47,0.00,,,0.13,WeatherDisplay:10.37,2013-03-20 16:50:00,
2013-03-20 17:55:00,59.0,39.4,29.88,NNW,334,7.0,9.0,48,0.00,,,0.13,WeatherDisplay:10.37,2013-03-20 16:55:00,
2013-03-20 18:00:00,58.6,45.2,29.89,West,270,3.0,8.0,61,0.00,,,0.13,WeatherDisplay:10.37,2013-03-20 17:00:00,
2013-03-20 18:05:00,57.7,46.0,29.89,South,191,6.0,8.0,65,0.00,,,0.13,WeatherDisplay:10.37,2013-03-20 17:05:00,
2013-03-20 18:10:00,56.7,46.2,29.89,SSW,207,5.0,8.0,68,0.00,,,0.13,WeatherDisplay:10.37,2013-03-20 17:10:00,
2013-03-20 18:15:00,56.2,46.1,29.90,SSW,193,7.0,10.0,69,0.00,,,0.13,WeatherDisplay:10.37,2013-03-20 17:15:00,
2013-03-20 18:20:00,55.5,46.6,29.90,SSW,208,7.0,7.0,72,0.00,,,0.13,WeatherDisplay:10.37,2013-03-20 17:20:00,
2013-03-20 18:25:00,55.0,46.9,29.90,South,184,4.6,4.6,74,0.00,,,0.13,WeatherDisplay:10.37,2013-03-20 17:25:00,
2013-03-20 18:30:00,54.5,46.7,29.91,SW,219,6.0,6.0,75,0.00,,,0.13,WeatherDisplay:10.37,2013-03-20 17:30:00,
2013-03-20 18:35:00,54.0,46.3,29.91,SW,236,6.9,6.9,75,0.00,,,0.13,WeatherDisplay:10.37,2013-03-20 17:35:00,
2013-03-20 18:40:00,53.7,46.7,29.92,West,281,4.6,4.6,77,0.00,,,0.13,WeatherDisplay:10.37,2013-03-20 17:40:00,
2013-03-20 18:45:00,53.3,46.3,29.92,SW,231,6.0,6.0,77,0.00,,,0.13,WeatherDisplay:10.37,2013-03-20 17:45:00,
2013-03-20 18:50:00,53.2,46.2,29.92,South,176,9.2,9.2,77,0.00,,,0.13,WeatherDisplay:10.37,2013-03-20 17:50:00,
2013-03-20 18:55:00,53.1,46.4,29.92,South,190,8.1,8.1,78,0.00,,,0.13,WeatherDisplay:10.37,2013-03-20 17:55:00,
2013-03-20 19:00:00,53.0,46.0,29.92,SSW,206,6.0,9.0,77,0.00,,,0.13,WeatherDisplay:10.37,2013-03-20 18:00:00,
2013-03-20 19:05:00,53.0,46.3,29.93,South,184,5.0,5.0,78,0.00,,,0.13,WeatherDisplay:10.37,2013-03-20 18:05:00,
2013-03-20 19:10:00,53.0,46.3,29.93,SW,221,1.0,5.0,78,0.00,,,0.13,WeatherDisplay:10.37,2013-03-20 18:10:00,
2013-03-20 19:15:00,52.7,46.3,29.93,WNW,285,2.0,4.0,79,0.00,,,0.13,WeatherDisplay:10.37,2013-03-20 18:15:00,
2013-03-20 19:20:00,52.0,46.3,29.94,WNW,299,1.0,4.0,81,0.00,,,0.13,WeatherDisplay:10.37,2013-03-20 18:20:00,
2013-03-20 19:25:00,52.0,46.3,29.94,SSW,207,3.0,5.0,81,0.00,,,0.13,WeatherDisplay:10.37,2013-03-20 18:25:00,
2013-03-20 19:30:00,51.9,46.3,29.94,SSW,193,5.0,7.0,81,0.00,,,0.13,WeatherDisplay:10.37,2013-03-20 18:30:00,
2013-03-20 19:35:00,52.1,46.4,29.95,SW,221,3.0,7.0,81,0.00,,,0.13,WeatherDisplay:10.37,2013-03-20 18:35:00,
2013-03-20 19:40:00,52.4,46.4,29.95,WSW,238,2.0,5.0,80,0.00,,,0.13,WeatherDisplay:10.37,2013-03-20 18:40:00,
2013-03-20 19:45:00,52.3,46.3,29.96,WSW,242,1.0,5.0,80,0.00,,,0.13,WeatherDisplay:10.37,2013-03-20 18:45:00,
2013-03-20 19:50:00,52.1,46.1,29.96,SW,220,1.0,3.0,80,0.00,,,0.13,WeatherDisplay:10.37,2013-03-20 18:50:00,
2013-03-20 19:55:00,51.6,46.0,29.96,South,180,2.0,3.0,81,0.00,,,0.13,WeatherDisplay:10.37,2013-03-20 18:55:00,
2013-03-20 20:00:00,51.2,45.9,29.97,South,170,0.0,2.0,82,0.00,,,0.13,WeatherDisplay:10.37,2013-03-20 19:00:00,
2013-03-20 20:05:00,50.6,45.3,29.97,ENE,60,3.0,5.0,82,0.00,,,0.13,WeatherDisplay:10.37,2013-03-20 19:05:00,
2013-03-20 20:10:00,49.6,45.3,29.97,East,83,2.0,3.0,85,0.00,,,0.13,WeatherDisplay:10.37,2013-03-20 19:10:00,
2013-03-20 20:15:00,49.2,45.2,29.98,ENE,63,3.0,5.0,86,0.00,,,0.13,WeatherDisplay:10.37,2013-03-20 19:15:00,
2013-03-20 20:20:00,49.2,45.2,29.98,NNE,32,1.0,2.0,86,0.00,,,0.13,WeatherDisplay:10.37,2013-03-20 19:20:00,
2013-03-20 20:25:00,49.5,45.5,29.98,ENE,70,1.0,2.0,86,0.00,,,0.13,WeatherDisplay:10.37,2013-03-20 19:25:00,
2013-03-20 20:30:00,49.1,44.5,29.98,SE,128,0.0,1.0,84,0.00,,,0.13,WeatherDisplay:10.37,2013-03-20 19:30:00,
2013-03-20 20:35:00,49.1,45.4,29.99,South,185,0.0,1.0,87,0.00,,,0.13,WeatherDisplay:10.37,2013-03-20 19:35:00,
2013-03-20 20:40:00,49.0,44.7,30.00,SW,226,1.0,1.0,85,0.00,,,0.13,WeatherDisplay:10.37,2013-03-20 19:40:00,
2013-03-20 20:45:00,48.3,44.3,30.00,South,172,1.0,1.0,86,0.00,,,0.13,WeatherDisplay:10.37,2013-03-20 19:45:00,
2013-03-20 20:50:00,48.2,44.5,30.00,ENE,68,3.0,6.0,87,0.00,,,0.13,WeatherDisplay:10.37,2013-03-20 19:50:00,
2013-03-20 20:55:00,48.3,44.9,30.00,East,81,1.0,4.0,88,0.00,,,0.13,WeatherDisplay:10.37,2013-03-20 19:55:00,
2013-03-20 21:00:00,48.7,45.0,30.00,SE,130,1.0,3.0,87,0.00,,,0.13,WeatherDisplay:10.37,2013-03-20 20:00:00,
2013-03-20 21:05:00,48.8,44.8,30.00,SSE,155,2.0,3.0,86,0.00,CLR,,0.13,WeatherDisplay:10.37,2013-03-20 20:05:00,
2013-03-20 21:10:00,48.4,44.4,30.00,SSE,160,1.0,3.0,86,0.00,CLR,,0.13,WeatherDisplay:10.37,2013-03-20 20:10:00,
2013-03-20 21:15:00,48.0,44.3,30.00,NE,37,0.0,3.0,87,0.00,CLR,,0.13,WeatherDisplay:10.37,2013-03-20 20:15:00,
2013-03-20 21:20:00,48.1,44.4,30.01,NNE,22,0.0,1.0,87,0.00,CLR,,0.13,WeatherDisplay:10.37,2013-03-20 20:20:00,
2013-03-20 21:25:00,47.9,44.0,30.01,North,2,1.0,3.0,86,0.00,CLR,,0.13,WeatherDisplay:10.37,2013-03-20 20:25:00,
2013-03-20 21:30:00,47.8,44.4,30.01,NNW,332,0.0,1.0,88,0.00,CLR,,0.13,WeatherDisplay:10.37,2013-03-20 20:30:00,
2013-03-20 21:35:00,47.6,43.9,30.01,NW,315,0.0,0.0,87,0.00,CLR,,0.13,WeatherDisplay:10.37,2013-03-20 20:35:00,
2013-03-20 21:40:00,47.6,44.2,30.01,NW,315,0.0,0.0,88,0.00,CLR,,0.13,WeatherDisplay:10.37,2013-03-20 20:40:00,
2013-03-20 21:45:00,47.4,44.0,30.02,NW,318,0.0,2.0,88,0.00,CLR,,0.13,WeatherDisplay:10.37,2013-03-20 20:45:00,
2013-03-20 21:50:00,47.3,44.2,30.01,NNE,25,1.0,2.0,89,0.00,CLR,,0.13,WeatherDisplay:10.37,2013-03-20 20:50:00,
2013-03-20 21:55:00,47.5,43.5,30.01,ENE,62,0.0,0.3,86,0.00,CLR,,0.13,WeatherDisplay:10.37,2013-03-20 20:55:00,
2013-03-20 22:00:00,47.1,43.4,30.01,NNE,23,2.0,2.0,87,0.00,CLR,,0.13,WeatherDisplay:10.37,2013-03-20 21:00:00,
2013-03-20 22:05:00,46.3,42.9,30.02,NNE,15,1.1,0.0,88,0.00,CLR,,0.13,WeatherDisplay:10.37,2013-03-20 21:05:00,
2013-03-20 22:10:00,46.8,44.0,30.02,NNE,32,1.1,1.1,90,0.00,CLR,,0.13,WeatherDisplay:10.37,2013-03-20 21:10:00,
2013-03-20 22:15:00,47.2,43.5,30.03,NNE,30,0.0,0.0,87,0.00,CLR,,0.13,WeatherDisplay:10.37,2013-03-20 21:15:00,
2013-03-20 22:20:00,47.0,43.3,30.03,ENE,64,0.0,0.5,87,0.00,CLR,,0.13,WeatherDisplay:10.37,2013-03-20 21:20:00,
2013-03-20 22:25:00,46.9,43.5,30.03,South,174,3.5,3.5,88,0.00,CLR,,0.13,WeatherDisplay:10.37,2013-03-20 21:25:00,
2013-03-20 22:30:00,46.8,43.4,30.03,SSE,167,1.0,2.0,88,0.00,CLR,,0.13,WeatherDisplay:10.37,2013-03-20 21:30:00,
2013-03-20 22:35:00,46.7,43.6,30.03,South,189,0.0,3.0,89,0.00,CLR,,0.13,WeatherDisplay:10.37,2013-03-20 21:35:00,
2013-03-20 22:40:00,46.7,43.9,30.04,SW,219,0.0,1.0,90,0.00,CLR,,0.13,WeatherDisplay:10.37,2013-03-20 21:40:00,
2013-03-20 22:45:00,46.5,43.7,30.04,SW,232,1.0,3.0,90,0.00,CLR,,0.13,WeatherDisplay:10.37,2013-03-20 21:45:00,
2013-03-20 22:50:00,46.3,43.5,30.04,SSW,199,1.0,2.0,90,0.00,CLR,,0.13,WeatherDisplay:10.37,2013-03-20 21:50:00,
2013-03-20 22:55:00,46.0,43.3,30.04,SSE,163,0.0,2.0,90,0.00,CLR,,0.13,WeatherDisplay:10.37,2013-03-20 21:55:00,
2013-03-20 23:00:00,45.9,43.4,30.04,SSE,156,0.0,1.0,91,0.00,CLR,,0.13,WeatherDisplay:10.37,2013-03-20 22:00:00,
2013-03-20 23:05:00,46.0,43.5,30.05,SSE,160,0.0,1.0,91,0.00,CLR,,0.13,WeatherDisplay:10.37,2013-03-20 22:05:00,
2013-03-20 23:10:00,45.9,43.4,30.05,SSE,160,1.0,1.0,91,0.00,CLR,,0.13,WeatherDisplay:10.37,2013-03-20 22:10:00,
2013-03-20 23:15:00,45.9,43.4,30.04,SSE,155,1.0,1.0,91,0.00,CLR,,0.13,WeatherDisplay:10.37,2013-03-20 22:15:00,
2013-03-20 23:20:00,45.9,43.7,30.04,SSE,152,0.0,1.0,92,0.00,CLR,,0.13,WeatherDisplay:10.37,2013-03-20 22:20:00,
2013-03-20 23:25:00,46.0,43.8,30.04,SSE,150,0.0,0.0,92,0.00,CLR,,0.13,WeatherDisplay:10.37,2013-03-20 22:25:00,
2013-03-20 23:30:00,46.1,43.9,30.05,SSE,150,0.0,0.0,92,0.00,CLR,,0.13,WeatherDisplay:10.37,2013-03-20 22:30:00,
2013-03-20 23:35:00,46.0,43.8,30.05,SE,137,0.0,0.0,92,0.00,CLR,,0.13,WeatherDisplay:10.37,2013-03-20 22:35:00,
2013-03-20 23:40:00,46.6,44.6,30.05,East,101,1.0,2.0,93,0.00,CLR,,0.13,WeatherDisplay:10.37,2013-03-20 22:40:00,
2013-03-20 23:45:00,47.3,45.1,30.05,NE,54,1.0,2.0,92,0.00,CLR,,0.13,WeatherDisplay:10.37,2013-03-20 22:45:00,
2013-03-20 23:50:00,47.4,44.6,30.05,NNE,21,0.0,1.0,90,0.00,CLR,,0.13,WeatherDisplay:10.37,2013-03-20 22:50:00,
2013-03-20 23:55:00,47.3,44.8,30.05,NNW,338,0.0,0.0,91,0.00,CLR,,0.13,WeatherDisplay:10.37,2013-03-20 22:55:00,